sensor_id;sensor_type;location;lat;lon;timestamp;temperature;humidity
17027;DHT22;8630;50.500;12.164;2022-07-23T00:00:16;20.70;96.40
17027;DHT22;8630;50.500;12.164;2022-07-23T00:02:45;20.60;96.50
17027;DHT22;8630;50.500;12.164;2022-07-23T00:05:13;20.60;96.60
17027;DHT22;8630;50.500;12.164;2022-07-23T00:07:40;20.50;96.70
17027;DHT22;8630;50.500;12.164;2022-07-23T00:10:08;20.50;97.20
17027;DHT22;8630;50.500;12.164;2022-07-23T00:12:37;20.40;96.90
17027;DHT22;8630;50.500;12.164;2022-07-23T00:15:05;20.40;97.00
17027;DHT22;8630;50.500;12.164;2022-07-23T00:17:33;20.40;97.10
17027;DHT22;8630;50.500;12.164;2022-07-23T00:20:01;20.40;97.20
17027;DHT22;8630;50.500;12.164;2022-07-23T00:22:29;20.30;97.30
17027;DHT22;8630;50.500;12.164;2022-07-23T00:24:56;20.30;97.30
17027;DHT22;8630;50.500;12.164;2022-07-23T00:27:24;20.30;97.40
17027;DHT22;8630;50.500;12.164;2022-07-23T00:29:53;20.20;97.50
17027;DHT22;8630;50.500;12.164;2022-07-23T00:32:20;20.20;97.60
17027;DHT22;8630;50.500;12.164;2022-07-23T00:34:48;20.20;97.70
17027;DHT22;8630;50.500;12.164;2022-07-23T00:37:16;20.20;97.70
17027;DHT22;8630;50.500;12.164;2022-07-23T00:39:44;20.10;97.80
17027;DHT22;8630;50.500;12.164;2022-07-23T00:42:11;20.10;97.90
17027;DHT22;8630;50.500;12.164;2022-07-23T00:44:38;20.10;97.90
17027;DHT22;8630;50.500;12.164;2022-07-23T00:47:11;20.10;97.90
17027;DHT22;8630;50.500;12.164;2022-07-23T00:49:38;20.10;98.00
17027;DHT22;8630;50.500;12.164;2022-07-23T00:52:06;20.10;98.00
17027;DHT22;8630;50.500;12.164;2022-07-23T00:54:36;20.10;98.00
17027;DHT22;8630;50.500;12.164;2022-07-23T00:57:03;20.00;98.10
17027;DHT22;8630;50.500;12.164;2022-07-23T00:59:30;19.90;98.20
17027;DHT22;8630;50.500;12.164;2022-07-23T01:01:58;19.90;98.30
17027;DHT22;8630;50.500;12.164;2022-07-23T01:04:26;19.80;98.30
17027;DHT22;8630;50.500;12.164;2022-07-23T01:06:53;19.80;98.50
17027;DHT22;8630;50.500;12.164;2022-07-23T01:09:20;19.70;98.50
17027;DHT22;8630;50.500;12.164;2022-07-23T01:11:52;19.70;98.60
17027;DHT22;8630;50.500;12.164;2022-07-23T01:14:21;19.70;98.70
17027;DHT22;8630;50.500;12.164;2022-07-23T01:16:48;19.60;98.80
17027;DHT22;8630;50.500;12.164;2022-07-23T01:19:16;19.60;98.90
17027;DHT22;8630;50.500;12.164;2022-07-23T01:21:51;19.60;99.00
17027;DHT22;8630;50.500;12.164;2022-07-23T01:24:19;19.50;99.40
17027;DHT22;8630;50.500;12.164;2022-07-23T01:27:01;19.50;99.10
17027;DHT22;8630;50.500;12.164;2022-07-23T01:29:29;19.50;99.30
17027;DHT22;8630;50.500;12.164;2022-07-23T01:31:59;19.50;99.30
17027;DHT22;8630;50.500;12.164;2022-07-23T01:34:27;19.50;99.40
17027;DHT22;8630;50.500;12.164;2022-07-23T01:36:54;19.40;99.40
17027;DHT22;8630;50.500;12.164;2022-07-23T01:39:23;19.50;99.50
17027;DHT22;8630;50.500;12.164;2022-07-23T01:41:51;19.50;99.60
17027;DHT22;8630;50.500;12.164;2022-07-23T01:44:19;19.40;99.60
17027;DHT22;8630;50.500;12.164;2022-07-23T01:46:46;19.50;99.70
17027;DHT22;8630;50.500;12.164;2022-07-23T01:49:14;19.50;99.70
17027;DHT22;8630;50.500;12.164;2022-07-23T01:52:00;19.50;99.70
17027;DHT22;8630;50.500;12.164;2022-07-23T01:54:42;19.50;99.80
17027;DHT22;8630;50.500;12.164;2022-07-23T01:57:11;19.50;99.80
17027;DHT22;8630;50.500;12.164;2022-07-23T01:59:38;19.50;99.80
17027;DHT22;8630;50.500;12.164;2022-07-23T02:02:06;19.50;99.90
17027;DHT22;8630;50.500;12.164;2022-07-23T02:04:33;19.50;99.90
17027;DHT22;8630;50.500;12.164;2022-07-23T02:07:03;19.50;99.90
17027;DHT22;8630;50.500;12.164;2022-07-23T02:09:30;19.50;99.90
17027;DHT22;8630;50.500;12.164;2022-07-23T02:12:00;19.60;99.90
17027;DHT22;8630;50.500;12.164;2022-07-23T02:14:27;19.60;99.90
17027;DHT22;8630;50.500;12.164;2022-07-23T02:16:54;19.50;99.90
17027;DHT22;8630;50.500;12.164;2022-07-23T02:19:21;19.60;99.90
17027;DHT22;8630;50.500;12.164;2022-07-23T02:21:48;19.60;99.90
17027;DHT22;8630;50.500;12.164;2022-07-23T02:24:18;19.50;99.90
17027;DHT22;8630;50.500;12.164;2022-07-23T02:26:45;19.50;99.90
17027;DHT22;8630;50.500;12.164;2022-07-23T02:29:14;19.50;99.90
17027;DHT22;8630;50.500;12.164;2022-07-23T02:31:41;19.50;99.90
17027;DHT22;8630;50.500;12.164;2022-07-23T02:34:08;19.40;99.90
17027;DHT22;8630;50.500;12.164;2022-07-23T02:36:37;19.40;99.90
17027;DHT22;8630;50.500;12.164;2022-07-23T02:39:05;19.30;99.90
17027;DHT22;8630;50.500;12.164;2022-07-23T02:41:34;19.30;99.90
17027;DHT22;8630;50.500;12.164;2022-07-23T02:44:01;19.30;99.90
17027;DHT22;8630;50.500;12.164;2022-07-23T02:46:29;19.30;99.90
17027;DHT22;8630;50.500;12.164;2022-07-23T02:49:01;19.20;99.90
17027;DHT22;8630;50.500;12.164;2022-07-23T02:51:30;19.20;99.90
17027;DHT22;8630;50.500;12.164;2022-07-23T02:54:01;19.20;99.90
17027;DHT22;8630;50.500;12.164;2022-07-23T02:56:29;19.20;99.90
17027;DHT22;8630;50.500;12.164;2022-07-23T02:58:57;19.20;99.90
17027;DHT22;8630;50.500;12.164;2022-07-23T03:01:24;19.20;99.90
17027;DHT22;8630;50.500;12.164;2022-07-23T03:03:53;19.10;99.90
17027;DHT22;8630;50.500;12.164;2022-07-23T03:06:21;19.10;99.90
17027;DHT22;8630;50.500;12.164;2022-07-23T03:08:49;19.10;99.90
17027;DHT22;8630;50.500;12.164;2022-07-23T03:11:16;19.10;99.90
17027;DHT22;8630;50.500;12.164;2022-07-23T03:13:43;19.00;99.90
17027;DHT22;8630;50.500;12.164;2022-07-23T03:16:12;19.00;99.90
17027;DHT22;8630;50.500;12.164;2022-07-23T03:18:39;19.00;99.90
17027;DHT22;8630;50.500;12.164;2022-07-23T03:21:08;18.90;99.90
17027;DHT22;8630;50.500;12.164;2022-07-23T03:23:37;18.90;99.90
17027;DHT22;8630;50.500;12.164;2022-07-23T03:26:04;18.80;99.90
17027;DHT22;8630;50.500;12.164;2022-07-23T03:28:32;18.80;99.90
17027;DHT22;8630;50.500;12.164;2022-07-23T03:31:00;18.70;99.90
17027;DHT22;8630;50.500;12.164;2022-07-23T03:33:27;18.70;99.90
17027;DHT22;8630;50.500;12.164;2022-07-23T03:35:54;18.70;99.90
17027;DHT22;8630;50.500;12.164;2022-07-23T03:38:28;18.70;99.90
17027;DHT22;8630;50.500;12.164;2022-07-23T03:40:55;18.60;99.90
17027;DHT22;8630;50.500;12.164;2022-07-23T03:43:22;18.60;99.90
17027;DHT22;8630;50.500;12.164;2022-07-23T03:46:13;18.60;99.90
17027;DHT22;8630;50.500;12.164;2022-07-23T03:48:40;18.60;99.90
17027;DHT22;8630;50.500;12.164;2022-07-23T03:51:07;18.60;99.90
17027;DHT22;8630;50.500;12.164;2022-07-23T03:53:36;18.60;99.90
17027;DHT22;8630;50.500;12.164;2022-07-23T03:56:03;18.60;99.90
17027;DHT22;8630;50.500;12.164;2022-07-23T03:58:30;18.70;99.90
17027;DHT22;8630;50.500;12.164;2022-07-23T04:00:57;18.70;99.90
17027;DHT22;8630;50.500;12.164;2022-07-23T04:03:24;18.70;99.90
17027;DHT22;8630;50.500;12.164;2022-07-23T04:05:52;18.70;99.90
17027;DHT22;8630;50.500;12.164;2022-07-23T04:08:20;18.80;99.90
17027;DHT22;8630;50.500;12.164;2022-07-23T04:10:52;18.80;99.90
17027;DHT22;8630;50.500;12.164;2022-07-23T04:13:21;18.80;99.90
17027;DHT22;8630;50.500;12.164;2022-07-23T04:15:48;18.90;99.90
17027;DHT22;8630;50.500;12.164;2022-07-23T04:18:17;18.90;99.90
17027;DHT22;8630;50.500;12.164;2022-07-23T04:20:54;18.90;99.90
17027;DHT22;8630;50.500;12.164;2022-07-23T04:23:22;18.90;99.90
17027;DHT22;8630;50.500;12.164;2022-07-23T04:25:51;18.90;99.90
17027;DHT22;8630;50.500;12.164;2022-07-23T04:28:18;19.00;99.90
17027;DHT22;8630;50.500;12.164;2022-07-23T04:30:46;18.90;99.90
17027;DHT22;8630;50.500;12.164;2022-07-23T04:33:15;18.90;99.90
17027;DHT22;8630;50.500;12.164;2022-07-23T04:35:43;19.00;99.90
17027;DHT22;8630;50.500;12.164;2022-07-23T04:38:18;19.00;99.90
17027;DHT22;8630;50.500;12.164;2022-07-23T04:40:50;19.00;99.90
17027;DHT22;8630;50.500;12.164;2022-07-23T04:43:18;19.00;99.90
17027;DHT22;8630;50.500;12.164;2022-07-23T04:45:48;19.10;99.90
17027;DHT22;8630;50.500;12.164;2022-07-23T04:48:15;19.20;99.90
17027;DHT22;8630;50.500;12.164;2022-07-23T04:50:42;19.10;99.90
17027;DHT22;8630;50.500;12.164;2022-07-23T04:53:16;19.10;99.90
17027;DHT22;8630;50.500;12.164;2022-07-23T04:55:47;19.00;99.90
17027;DHT22;8630;50.500;12.164;2022-07-23T04:58:17;18.90;99.90
17027;DHT22;8630;50.500;12.164;2022-07-23T05:00:44;18.90;99.90
17027;DHT22;8630;50.500;12.164;2022-07-23T05:03:11;18.80;99.90
17027;DHT22;8630;50.500;12.164;2022-07-23T05:05:38;18.80;99.90
17027;DHT22;8630;50.500;12.164;2022-07-23T05:08:10;18.80;99.90
17027;DHT22;8630;50.500;12.164;2022-07-23T05:10:38;18.80;99.90
17027;DHT22;8630;50.500;12.164;2022-07-23T05:13:05;18.80;99.90
17027;DHT22;8630;50.500;12.164;2022-07-23T05:15:34;18.90;99.90
17027;DHT22;8630;50.500;12.164;2022-07-23T05:18:02;18.90;99.90
17027;DHT22;8630;50.500;12.164;2022-07-23T05:20:31;19.00;99.90
17027;DHT22;8630;50.500;12.164;2022-07-23T05:22:58;19.10;99.90
17027;DHT22;8630;50.500;12.164;2022-07-23T05:25:26;19.20;99.90
17027;DHT22;8630;50.500;12.164;2022-07-23T05:27:54;19.30;99.90
17027;DHT22;8630;50.500;12.164;2022-07-23T05:30:21;19.40;99.90
17027;DHT22;8630;50.500;12.164;2022-07-23T05:32:52;19.40;99.90
17027;DHT22;8630;50.500;12.164;2022-07-23T05:35:20;19.50;99.90
17027;DHT22;8630;50.500;12.164;2022-07-23T05:38:05;19.60;99.90
17027;DHT22;8630;50.500;12.164;2022-07-23T05:40:35;19.60;99.90
17027;DHT22;8630;50.500;12.164;2022-07-23T05:43:02;19.50;99.90
17027;DHT22;8630;50.500;12.164;2022-07-23T05:45:29;19.50;99.90
17027;DHT22;8630;50.500;12.164;2022-07-23T05:47:58;19.40;99.90
17027;DHT22;8630;50.500;12.164;2022-07-23T05:50:33;19.50;99.90
17027;DHT22;8630;50.500;12.164;2022-07-23T05:53:12;19.50;99.90
17027;DHT22;8630;50.500;12.164;2022-07-23T05:55:57;19.50;99.90
17027;DHT22;8630;50.500;12.164;2022-07-23T05:58:25;19.50;99.90
17027;DHT22;8630;50.500;12.164;2022-07-23T06:00:52;19.50;99.90
17027;DHT22;8630;50.500;12.164;2022-07-23T06:03:25;19.60;99.90
17027;DHT22;8630;50.500;12.164;2022-07-23T06:05:53;19.60;99.90
17027;DHT22;8630;50.500;12.164;2022-07-23T06:08:20;19.50;99.90
17027;DHT22;8630;50.500;12.164;2022-07-23T06:10:47;19.50;99.90
17027;DHT22;8630;50.500;12.164;2022-07-23T06:13:15;19.50;99.90
17027;DHT22;8630;50.500;12.164;2022-07-23T06:15:44;19.60;99.90
17027;DHT22;8630;50.500;12.164;2022-07-23T06:18:13;19.60;99.90
17027;DHT22;8630;50.500;12.164;2022-07-23T06:20:42;19.70;99.90
17027;DHT22;8630;50.500;12.164;2022-07-23T06:23:10;19.70;99.90
17027;DHT22;8630;50.500;12.164;2022-07-23T06:25:38;19.70;99.90
17027;DHT22;8630;50.500;12.164;2022-07-23T06:28:05;19.70;99.90
17027;DHT22;8630;50.500;12.164;2022-07-23T06:30:33;19.80;99.90
17027;DHT22;8630;50.500;12.164;2022-07-23T06:33:02;19.80;99.90
17027;DHT22;8630;50.500;12.164;2022-07-23T06:35:30;19.90;99.90
17027;DHT22;8630;50.500;12.164;2022-07-23T06:38:00;19.90;99.90
17027;DHT22;8630;50.500;12.164;2022-07-23T06:40:28;20.00;99.90
17027;DHT22;8630;50.500;12.164;2022-07-23T06:42:55;20.10;99.90
17027;DHT22;8630;50.500;12.164;2022-07-23T06:45:22;20.10;99.90
17027;DHT22;8630;50.500;12.164;2022-07-23T06:47:49;20.10;99.90
17027;DHT22;8630;50.500;12.164;2022-07-23T06:50:18;20.20;99.90
17027;DHT22;8630;50.500;12.164;2022-07-23T06:52:45;20.30;99.90
17027;DHT22;8630;50.500;12.164;2022-07-23T06:55:15;20.40;99.90
17027;DHT22;8630;50.500;12.164;2022-07-23T06:57:44;20.50;99.90
17027;DHT22;8630;50.500;12.164;2022-07-23T07:00:12;20.50;99.90
17027;DHT22;8630;50.500;12.164;2022-07-23T07:02:42;20.50;99.90
17027;DHT22;8630;50.500;12.164;2022-07-23T07:05:10;20.60;99.90
17027;DHT22;8630;50.500;12.164;2022-07-23T07:07:37;20.60;99.90
17027;DHT22;8630;50.500;12.164;2022-07-23T07:10:09;20.60;99.90
17027;DHT22;8630;50.500;12.164;2022-07-23T07:12:40;20.60;99.90
17027;DHT22;8630;50.500;12.164;2022-07-23T07:15:07;20.50;99.90
17027;DHT22;8630;50.500;12.164;2022-07-23T07:17:35;20.60;99.90
17027;DHT22;8630;50.500;12.164;2022-07-23T07:20:02;20.60;99.90
17027;DHT22;8630;50.500;12.164;2022-07-23T07:22:29;20.50;99.90
17027;DHT22;8630;50.500;12.164;2022-07-23T07:25:00;20.50;99.90
17027;DHT22;8630;50.500;12.164;2022-07-23T07:27:27;20.40;99.90
17027;DHT22;8630;50.500;12.164;2022-07-23T07:29:56;20.40;99.90
17027;DHT22;8630;50.500;12.164;2022-07-23T07:32:23;20.40;99.90
17027;DHT22;8630;50.500;12.164;2022-07-23T07:34:51;20.40;99.90
17027;DHT22;8630;50.500;12.164;2022-07-23T07:37:19;20.40;99.90
17027;DHT22;8630;50.500;12.164;2022-07-23T07:39:47;20.40;99.90
17027;DHT22;8630;50.500;12.164;2022-07-23T07:42:14;20.40;99.90
17027;DHT22;8630;50.500;12.164;2022-07-23T07:44:42;20.50;99.90
17027;DHT22;8630;50.500;12.164;2022-07-23T07:47:11;20.60;99.90
17027;DHT22;8630;50.500;12.164;2022-07-23T07:49:39;20.80;99.90
17027;DHT22;8630;50.500;12.164;2022-07-23T07:52:06;21.00;99.90
17027;DHT22;8630;50.500;12.164;2022-07-23T07:54:34;21.20;99.90
17027;DHT22;8630;50.500;12.164;2022-07-23T07:57:01;21.40;99.90
17027;DHT22;8630;50.500;12.164;2022-07-23T07:59:28;21.90;99.80
17027;DHT22;8630;50.500;12.164;2022-07-23T08:01:55;22.40;99.30
17027;DHT22;8630;50.500;12.164;2022-07-23T08:04:23;23.00;98.80
17027;DHT22;8630;50.500;12.164;2022-07-23T08:06:51;23.70;97.80
17027;DHT22;8630;50.500;12.164;2022-07-23T08:09:18;24.00;96.60
17027;DHT22;8630;50.500;12.164;2022-07-23T08:11:45;24.40;96.00
17027;DHT22;8630;50.500;12.164;2022-07-23T08:14:12;24.60;95.20
17027;DHT22;8630;50.500;12.164;2022-07-23T08:16:40;24.90;94.60
17027;DHT22;8630;50.500;12.164;2022-07-23T08:19:07;25.00;93.90
17027;DHT22;8630;50.500;12.164;2022-07-23T08:21:38;25.10;93.60
17027;DHT22;8630;50.500;12.164;2022-07-23T08:24:06;25.30;93.20
17027;DHT22;8630;50.500;12.164;2022-07-23T08:26:33;25.30;93.00
17027;DHT22;8630;50.500;12.164;2022-07-23T08:29:00;25.40;92.70
17027;DHT22;8630;50.500;12.164;2022-07-23T08:31:27;25.40;92.20
17027;DHT22;8630;50.500;12.164;2022-07-23T08:33:54;25.40;92.10
17027;DHT22;8630;50.500;12.164;2022-07-23T08:36:22;25.60;92.00
17027;DHT22;8630;50.500;12.164;2022-07-23T08:38:50;25.70;91.90
17027;DHT22;8630;50.500;12.164;2022-07-23T08:41:17;25.90;91.50
17027;DHT22;8630;50.500;12.164;2022-07-23T08:43:44;26.20;91.20
17027;DHT22;8630;50.500;12.164;2022-07-23T08:46:13;26.60;90.80
17027;DHT22;8630;50.500;12.164;2022-07-23T08:48:40;27.10;90.10
17027;DHT22;8630;50.500;12.164;2022-07-23T08:51:08;27.30;88.40
17027;DHT22;8630;50.500;12.164;2022-07-23T08:53:36;27.50;87.10
17027;DHT22;8630;50.500;12.164;2022-07-23T08:56:06;27.50;85.90
17027;DHT22;8630;50.500;12.164;2022-07-23T08:58:33;27.70;85.60
17027;DHT22;8630;50.500;12.164;2022-07-23T09:01:01;27.90;84.80
17027;DHT22;8630;50.500;12.164;2022-07-23T09:03:31;28.20;84.10
17027;DHT22;8630;50.500;12.164;2022-07-23T09:06:01;28.60;82.90
17027;DHT22;8630;50.500;12.164;2022-07-23T09:08:34;29.00;81.20
17027;DHT22;8630;50.500;12.164;2022-07-23T09:11:06;29.20;78.80
17027;DHT22;8630;50.500;12.164;2022-07-23T09:13:36;29.20;77.60
17027;DHT22;8630;50.500;12.164;2022-07-23T09:16:06;29.20;76.50
17027;DHT22;8630;50.500;12.164;2022-07-23T09:18:37;29.10;75.90
17027;DHT22;8630;50.500;12.164;2022-07-23T09:21:13;29.10;75.80
17027;DHT22;8630;50.500;12.164;2022-07-23T09:23:42;28.80;75.40
17027;DHT22;8630;50.500;12.164;2022-07-23T09:26:28;28.60;75.60
17027;DHT22;8630;50.500;12.164;2022-07-23T09:29:04;28.40;75.80
17027;DHT22;8630;50.500;12.164;2022-07-23T09:31:34;28.10;76.50
17027;DHT22;8630;50.500;12.164;2022-07-23T09:34:08;27.90;77.40
17027;DHT22;8630;50.500;12.164;2022-07-23T09:36:36;27.60;78.50
17027;DHT22;8630;50.500;12.164;2022-07-23T09:39:03;27.20;79.20
17027;DHT22;8630;50.500;12.164;2022-07-23T09:41:37;26.90;79.60
17027;DHT22;8630;50.500;12.164;2022-07-23T09:44:12;26.50;80.50
17027;DHT22;8630;50.500;12.164;2022-07-23T09:46:40;26.20;81.60
17027;DHT22;8630;50.500;12.164;2022-07-23T09:49:17;25.90;83.20
17027;DHT22;8630;50.500;12.164;2022-07-23T09:51:53;25.60;84.30
17027;DHT22;8630;50.500;12.164;2022-07-23T09:54:29;25.30;85.00
17027;DHT22;8630;50.500;12.164;2022-07-23T09:57:02;25.10;86.20
17027;DHT22;8630;50.500;12.164;2022-07-23T09:59:31;24.90;87.50
17027;DHT22;8630;50.500;12.164;2022-07-23T10:02:00;24.90;88.50
17027;DHT22;8630;50.500;12.164;2022-07-23T10:04:30;25.00;89.40
17027;DHT22;8630;50.500;12.164;2022-07-23T10:07:13;25.30;89.50
17027;DHT22;8630;50.500;12.164;2022-07-23T10:10:03;25.60;89.30
17027;DHT22;8630;50.500;12.164;2022-07-23T10:12:51;26.00;88.60
17027;DHT22;8630;50.500;12.164;2022-07-23T10:15:40;26.50;87.30
17027;DHT22;8630;50.500;12.164;2022-07-23T10:18:09;26.90;85.70
17027;DHT22;8630;50.500;12.164;2022-07-23T10:20:36;27.30;84.20
17027;DHT22;8630;50.500;12.164;2022-07-23T10:23:10;27.40;82.90
17027;DHT22;8630;50.500;12.164;2022-07-23T10:25:44;27.60;82.10
17027;DHT22;8630;50.500;12.164;2022-07-23T10:28:46;27.80;81.00
17027;DHT22;8630;50.500;12.164;2022-07-23T10:31:25;27.90;79.70
17027;DHT22;8630;50.500;12.164;2022-07-23T10:34:06;28.10;79.60
17027;DHT22;8630;50.500;12.164;2022-07-23T10:36:42;28.30;79.00
17027;DHT22;8630;50.500;12.164;2022-07-23T10:39:15;28.50;77.80
17027;DHT22;8630;50.500;12.164;2022-07-23T10:41:44;28.40;76.50
17027;DHT22;8630;50.500;12.164;2022-07-23T10:44:15;28.10;76.60
17027;DHT22;8630;50.500;12.164;2022-07-23T10:46:57;27.90;77.10
17027;DHT22;8630;50.500;12.164;2022-07-23T10:49:36;27.90;78.10
17027;DHT22;8630;50.500;12.164;2022-07-23T10:52:22;28.00;78.10
17027;DHT22;8630;50.500;12.164;2022-07-23T10:54:51;28.20;77.30
17027;DHT22;8630;50.500;12.164;2022-07-23T10:57:20;28.30;76.60
17027;DHT22;8630;50.500;12.164;2022-07-23T11:00:16;28.30;76.20
17027;DHT22;8630;50.500;12.164;2022-07-23T11:02:45;28.30;76.40
17027;DHT22;8630;50.500;12.164;2022-07-23T11:05:14;28.20;76.70
17027;DHT22;8630;50.500;12.164;2022-07-23T11:08:11;28.20;76.20
17027;DHT22;8630;50.500;12.164;2022-07-23T11:10:41;28.10;76.00
17027;DHT22;8630;50.500;12.164;2022-07-23T11:13:37;28.10;76.60
17027;DHT22;8630;50.500;12.164;2022-07-23T11:16:18;28.10;75.90
17027;DHT22;8630;50.500;12.164;2022-07-23T11:19:08;28.00;76.00
17027;DHT22;8630;50.500;12.164;2022-07-23T11:21:51;28.10;76.40
17027;DHT22;8630;50.500;12.164;2022-07-23T11:24:21;28.20;76.20
17027;DHT22;8630;50.500;12.164;2022-07-23T11:27:00;28.50;75.80
17027;DHT22;8630;50.500;12.164;2022-07-23T11:29:47;28.80;74.50
17027;DHT22;8630;50.500;12.164;2022-07-23T11:32:38;28.70;74.30
17027;DHT22;8630;50.500;12.164;2022-07-23T11:35:22;28.80;74.20
17027;DHT22;8630;50.500;12.164;2022-07-23T11:37:51;28.80;73.90
17027;DHT22;8630;50.500;12.164;2022-07-23T11:40:25;28.80;73.60
17027;DHT22;8630;50.500;12.164;2022-07-23T11:42:57;28.60;73.30
17027;DHT22;8630;50.500;12.164;2022-07-23T11:45:29;28.30;73.70
17027;DHT22;8630;50.500;12.164;2022-07-23T11:47:58;28.20;74.50
17027;DHT22;8630;50.500;12.164;2022-07-23T11:50:25;28.10;74.70
17027;DHT22;8630;50.500;12.164;2022-07-23T11:52:53;27.90;74.90
17027;DHT22;8630;50.500;12.164;2022-07-23T11:55:20;27.70;75.50
17027;DHT22;8630;50.500;12.164;2022-07-23T11:57:51;27.70;76.10
17027;DHT22;8630;50.500;12.164;2022-07-23T12:00:22;27.70;76.30
17027;DHT22;8630;50.500;12.164;2022-07-23T12:02:51;27.60;76.70
17027;DHT22;8630;50.500;12.164;2022-07-23T12:05:22;27.70;76.60
17027;DHT22;8630;50.500;12.164;2022-07-23T12:07:50;27.90;76.60
17027;DHT22;8630;50.500;12.164;2022-07-23T12:10:19;28.10;75.90
17027;DHT22;8630;50.500;12.164;2022-07-23T12:12:48;28.20;75.10
17027;DHT22;8630;50.500;12.164;2022-07-23T12:15:17;28.20;75.30
17027;DHT22;8630;50.500;12.164;2022-07-23T12:17:47;28.30;74.90
17027;DHT22;8630;50.500;12.164;2022-07-23T12:20:15;28.30;75.00
17027;DHT22;8630;50.500;12.164;2022-07-23T12:22:46;28.40;74.80
17027;DHT22;8630;50.500;12.164;2022-07-23T12:25:14;28.30;74.40
17027;DHT22;8630;50.500;12.164;2022-07-23T12:27:42;28.10;74.50
17027;DHT22;8630;50.500;12.164;2022-07-23T12:30:21;27.80;74.80
17027;DHT22;8630;50.500;12.164;2022-07-23T12:32:51;27.70;76.00
17027;DHT22;8630;50.500;12.164;2022-07-23T12:35:20;27.60;76.20
17027;DHT22;8630;50.500;12.164;2022-07-23T12:37:51;27.50;76.50
17027;DHT22;8630;50.500;12.164;2022-07-23T12:40:27;27.50;76.60
17027;DHT22;8630;50.500;12.164;2022-07-23T12:42:57;27.40;77.20
17027;DHT22;8630;50.500;12.164;2022-07-23T12:45:25;27.20;76.90
17027;DHT22;8630;50.500;12.164;2022-07-23T12:48:02;27.00;78.40
17027;DHT22;8630;50.500;12.164;2022-07-23T12:50:43;26.80;78.00
17027;DHT22;8630;50.500;12.164;2022-07-23T12:53:14;26.20;80.50
17027;DHT22;8630;50.500;12.164;2022-07-23T12:55:42;25.00;85.60
17027;DHT22;8630;50.500;12.164;2022-07-23T12:58:12;23.80;90.90
17027;DHT22;8630;50.500;12.164;2022-07-23T13:01:00;22.90;94.40
17027;DHT22;8630;50.500;12.164;2022-07-23T13:03:39;22.30;97.20
17027;DHT22;8630;50.500;12.164;2022-07-23T13:06:07;22.00;99.40
17027;DHT22;8630;50.500;12.164;2022-07-23T13:08:38;21.90;99.90
17027;DHT22;8630;50.500;12.164;2022-07-23T13:11:06;21.90;99.90
17027;DHT22;8630;50.500;12.164;2022-07-23T13:13:35;21.80;99.90
17027;DHT22;8630;50.500;12.164;2022-07-23T13:16:03;21.80;99.90
17027;DHT22;8630;50.500;12.164;2022-07-23T13:18:33;21.80;99.90
17027;DHT22;8630;50.500;12.164;2022-07-23T13:21:00;21.70;99.90
17027;DHT22;8630;50.500;12.164;2022-07-23T13:23:27;21.70;99.90
17027;DHT22;8630;50.500;12.164;2022-07-23T13:25:56;21.80;99.90
17027;DHT22;8630;50.500;12.164;2022-07-23T13:28:23;21.80;99.90
17027;DHT22;8630;50.500;12.164;2022-07-23T13:30:50;21.90;99.90
17027;DHT22;8630;50.500;12.164;2022-07-23T13:33:18;22.10;99.90
17027;DHT22;8630;50.500;12.164;2022-07-23T13:35:47;22.20;99.90
17027;DHT22;8630;50.500;12.164;2022-07-23T13:38:14;22.30;99.90
17027;DHT22;8630;50.500;12.164;2022-07-23T13:40:43;22.30;99.90
17027;DHT22;8630;50.500;12.164;2022-07-23T13:43:12;22.50;99.90
17027;DHT22;8630;50.500;12.164;2022-07-23T13:45:40;22.70;99.90
17027;DHT22;8630;50.500;12.164;2022-07-23T13:48:08;22.80;99.90
17027;DHT22;8630;50.500;12.164;2022-07-23T13:50:36;22.90;99.90
17027;DHT22;8630;50.500;12.164;2022-07-23T13:53:05;23.20;99.90
17027;DHT22;8630;50.500;12.164;2022-07-23T13:55:32;23.50;99.90
17027;DHT22;8630;50.500;12.164;2022-07-23T13:58:00;23.70;99.90
17027;DHT22;8630;50.500;12.164;2022-07-23T14:00:30;23.70;99.90
17027;DHT22;8630;50.500;12.164;2022-07-23T14:02:57;23.80;99.90
17027;DHT22;8630;50.500;12.164;2022-07-23T14:05:24;23.80;99.90
17027;DHT22;8630;50.500;12.164;2022-07-23T14:07:52;23.80;99.90
17027;DHT22;8630;50.500;12.164;2022-07-23T14:10:20;23.80;99.90
17027;DHT22;8630;50.500;12.164;2022-07-23T14:12:48;23.90;99.90
17027;DHT22;8630;50.500;12.164;2022-07-23T14:15:16;24.00;99.90
17027;DHT22;8630;50.500;12.164;2022-07-23T14:17:48;24.10;99.90
17027;DHT22;8630;50.500;12.164;2022-07-23T14:20:16;24.10;99.90
17027;DHT22;8630;50.500;12.164;2022-07-23T14:22:43;24.20;99.90
17027;DHT22;8630;50.500;12.164;2022-07-23T14:25:11;24.30;99.90
17027;DHT22;8630;50.500;12.164;2022-07-23T14:27:38;24.50;99.90
17027;DHT22;8630;50.500;12.164;2022-07-23T14:30:08;24.60;99.90
17027;DHT22;8630;50.500;12.164;2022-07-23T14:32:36;24.80;99.90
17027;DHT22;8630;50.500;12.164;2022-07-23T14:35:06;25.10;99.90
17027;DHT22;8630;50.500;12.164;2022-07-23T14:37:33;25.40;99.90
17027;DHT22;8630;50.500;12.164;2022-07-23T14:40:00;25.70;99.90
17027;DHT22;8630;50.500;12.164;2022-07-23T14:42:28;25.70;99.90
17027;DHT22;8630;50.500;12.164;2022-07-23T14:44:55;25.80;99.90
17027;DHT22;8630;50.500;12.164;2022-07-23T14:47:22;25.80;99.90
17027;DHT22;8630;50.500;12.164;2022-07-23T14:49:49;25.90;99.60
17027;DHT22;8630;50.500;12.164;2022-07-23T14:52:18;25.90;99.20
17027;DHT22;8630;50.500;12.164;2022-07-23T14:54:45;25.80;98.80
17027;DHT22;8630;50.500;12.164;2022-07-23T14:57:13;25.70;98.80
17027;DHT22;8630;50.500;12.164;2022-07-23T14:59:40;25.60;98.70
17027;DHT22;8630;50.500;12.164;2022-07-23T15:02:08;25.50;98.50
17027;DHT22;8630;50.500;12.164;2022-07-23T15:04:35;25.50;98.40
17027;DHT22;8630;50.500;12.164;2022-07-23T15:07:03;25.40;98.10
17027;DHT22;8630;50.500;12.164;2022-07-23T15:09:31;25.30;97.90
17027;DHT22;8630;50.500;12.164;2022-07-23T15:11:58;25.30;97.80
17027;DHT22;8630;50.500;12.164;2022-07-23T15:14:25;25.40;97.80
17027;DHT22;8630;50.500;12.164;2022-07-23T15:16:52;25.40;97.80
17027;DHT22;8630;50.500;12.164;2022-07-23T15:19:19;25.60;97.90
17027;DHT22;8630;50.500;12.164;2022-07-23T15:21:46;25.70;97.10
17027;DHT22;8630;50.500;12.164;2022-07-23T15:24:14;25.50;96.60
17027;DHT22;8630;50.500;12.164;2022-07-23T15:26:42;25.30;96.60
17027;DHT22;8630;50.500;12.164;2022-07-23T15:29:09;25.20;96.90
17027;DHT22;8630;50.500;12.164;2022-07-23T15:31:36;25.10;96.70
17027;DHT22;8630;50.500;12.164;2022-07-23T15:34:05;25.00;96.40
17027;DHT22;8630;50.500;12.164;2022-07-23T15:36:32;25.00;95.90
17027;DHT22;8630;50.500;12.164;2022-07-23T15:38:59;25.10;95.60
17027;DHT22;8630;50.500;12.164;2022-07-23T15:41:26;25.10;95.20
17027;DHT22;8630;50.500;12.164;2022-07-23T15:43:55;25.10;94.80
17027;DHT22;8630;50.500;12.164;2022-07-23T15:46:22;25.20;94.30